Hoegaarden, Belgium
Current Conditions -  °F | °C
As of 9:25 AM on Friday 24 Oct 2014 (Local Time) from EBBE Reporting Station
Light Rain Light Rain  
Wind Chill: 50°   Ceiling: 4000
Heat Index: 50°   Visibility: 6mi
Dew Point: 45°   Wind: 14mph
Humidity: 82%   Direction: 200°SSW
Pressure: 30.12"   Gusts: NA
Location:  50.78°N, 4.89°E
Report Text: EBBE 240725Z 20012KT 9999 -RA BKN040 10/07 Q1020 BLU BLU
Loading
Personal Weather Stations






























Interactive Weather Map
Tropical Storm Tracking
New forecast layout! Learn more

10-Day Weather Forecast

Advertisements
Track Severe Weather on mobile